Time;durP1;ratioP1;P1;durP2;ratioP2;P2;SDS_P1;SDS_P2;PMS_P1;PMS_P2;Temp;Humidity;BMP_temperature;BMP_pressure;BME280_temperature;BME280_humidity;BME280_pressure;Samples;Min_cycle;Max_cycle;Signal;HPM_P1;HPM_P2
2023/01/04 00:01:37;;;;;;;7.03;3.85;;;;;;;5.00;61.96;101144.27;1747419;80;21492;-64
2023/01/04 00:04:04;;;;;;;8.13;4.30;;;;;;;5.06;61.84;101147.52;1743307;80;21060;-62
2023/01/04 00:06:31;;;;;;;8.25;4.50;;;;;;;5.04;61.77;101148.89;1750746;80;21091;-62
2023/01/04 00:08:58;;;;;;;8.45;4.33;;;;;;;5.03;61.66;101146.75;1745255;80;21346;-63
2023/01/04 00:11:24;;;;;;;7.37;4.40;;;;;;;5.01;61.60;101153.80;1749010;80;21102;-62
2023/01/04 00:13:52;;;;;;;5.08;2.10;;;;;;;4.97;61.58;101157.45;1753548;80;21052;-63
2023/01/04 00:16:22;;;;;;;6.83;4.42;;;;;;;4.93;61.62;101157.67;1721055;81;20982;-64
2023/01/04 00:18:50;;;;;;;6.35;2.05;;;;;;;4.87;61.71;101167.05;1749546;81;21079;-61
2023/01/04 00:21:22;;;;;;;10.00;4.60;;;;;;;4.83;61.75;101158.52;1741117;82;21823;-61
2023/01/04 00:23:50;;;;;;;8.90;4.28;;;;;;;4.79;61.78;101158.25;1721406;82;21059;-61
2023/01/04 00:26:20;;;;;;;6.70;4.25;;;;;;;4.79;61.78;101165.64;1729577;82;21089;-61
2023/01/04 00:28:47;;;;;;;4.40;1.90;;;;;;;4.83;61.62;101166.34;1743445;81;21143;-60
2023/01/04 00:31:14;;;;;;;4.22;1.37;;;;;;;4.82;61.57;101156.82;1738274;81;21564;-62
2023/01/04 00:33:41;;;;;;;7.33;3.85;;;;;;;4.79;61.68;101157.81;1720751;82;21209;-63
2023/01/04 00:36:12;;;;;;;4.30;1.40;;;;;;;4.72;61.92;101151.16;1726268;82;21041;-60
2023/01/04 00:38:39;;;;;;;4.75;1.60;;;;;;;4.70;62.05;101149.54;1721400;82;21065;-62
2023/01/04 00:41:06;;;;;;;7.47;4.22;;;;;;;4.65;62.21;101151.03;1723864;82;21857;-63
2023/01/04 00:43:33;;;;;;;8.08;4.53;;;;;;;4.59;62.41;101155.20;1739939;82;21185;-63
2023/01/04 00:46:01;;;;;;;6.47;2.47;;;;;;;4.54;62.57;101153.24;1726056;82;21273;-61
2023/01/04 00:48:28;;;;;;;9.15;4.25;;;;;;;4.50;62.71;101151.69;1728756;81;21031;-63
2023/01/04 00:50:55;;;;;;;4.42;1.60;;;;;;;4.53;62.56;101147.19;1722652;82;21648;-62
2023/01/04 00:53:22;;;;;;;7.12;3.98;;;;;;;4.58;62.42;101145.70;1722876;82;21471;-62
2023/01/04 00:55:48;;;;;;;7.65;4.08;;;;;;;4.54;62.31;101151.51;1726306;82;21554;-63
2023/01/04 00:58:15;;;;;;;5.87;1.98;;;;;;;4.53;62.24;101156.31;1739426;81;22216;-62
2023/01/04 01:00:41;;;;;;;7.25;4.12;;;;;;;4.51;62.17;101158.61;1733985;81;21066;-63
2023/01/04 01:03:08;;;;;;;4.03;1.70;;;;;;;4.48;62.15;101158.73;1723753;82;21059;-63
2023/01/04 01:05:35;;;;;;;6.97;4.17;;;;;;;4.42;62.04;101160.69;1723833;82;21078;-62
2023/01/04 01:08:23;;;;;;;5.33;2.00;;;;;;;4.40;62.02;101156.44;1728472;82;21515;-62
2023/01/04 01:10:31;;;;;;;7.45;3.95;;;;;;;4.38;62.02;101155.66;1729512;82;21680;-60
2023/01/04 01:12:57;;;;;;;6.20;2.02;;;;;;;4.33;61.96;101164.12;1704272;82;21039;-61
2023/01/04 01:15:24;;;;;;;7.75;3.62;;;;;;;4.32;61.93;101162.42;1760236;80;21504;-60
2023/01/04 01:17:51;;;;;;;5.78;1.62;;;;;;;4.39;61.73;101156.06;1754869;80;22119;-62
2023/01/04 01:20:18;;;;;;;4.83;1.67;;;;;;;4.44;61.52;101153.65;1745657;80;21504;-63
2023/01/04 01:22:44;;;;;;;4.62;1.67;;;;;;;4.44;61.44;101150.20;1746775;80;21242;-63
2023/01/04 01:25:10;;;;;;;7.83;4.40;;;;;;;4.44;61.10;101152.34;1744606;80;21031;-61
2023/01/04 01:27:37;;;;;;;6.28;3.60;;;;;;;4.42;60.88;101152.88;1748890;80;20999;-62
2023/01/04 01:30:05;;;;;;;5.65;1.87;;;;;;;4.33;60.86;101145.42;1765463;80;21075;-63
2023/01/04 01:32:33;;;;;;;7.78;3.83;;;;;;;4.30;60.97;101157.27;1752242;80;21084;-61
2023/01/04 01:35:00;;;;;;;4.35;1.70;;;;;;;4.27;60.84;101145.23;1748655;80;21263;-61
2023/01/04 01:37:27;;;;;;;8.53;3.62;;;;;;;4.27;60.72;101157.42;1746702;80;21099;-63
2023/01/04 01:39:54;;;;;;;7.05;1.27;;;;;;;4.25;60.66;101165.73;1746967;80;21595;-63
2023/01/04 01:42:22;;;;;;;4.28;1.55;;;;;;;4.22;60.40;101158.04;1752920;80;21046;-62
2023/01/04 01:45:00;;;;;;;4.15;1.30;;;;;;;4.18;60.42;101164.30;1755038;80;21579;-62
2023/01/04 01:47:38;;;;;;;6.45;3.50;;;;;;;4.16;60.31;101160.91;1749248;80;21222;-61
2023/01/04 01:50:07;;;;;;;5.00;1.27;;;;;;;4.13;60.28;101160.57;1749136;80;21027;-62
2023/01/04 01:52:35;;;;;;;7.35;2.87;;;;;;;4.19;60.05;101167.31;1751598;80;21043;-61
2023/01/04 01:55:06;;;;;;;6.17;1.37;;;;;;;4.26;59.83;101169.58;1748017;80;21049;-62
2023/01/04 01:57:34;;;;;;;8.10;2.87;;;;;;;4.32;59.44;101167.63;1747928;80;21053;-62
2023/01/04 02:00:11;;;;;;;3.80;1.40;;;;;;;4.30;59.32;101167.69;1743022;80;21254;-62
2023/01/04 02:03:06;;;;;;;7.47;2.60;;;;;;;4.27;59.23;101158.73;1754101;80;21027;-61
2023/01/04 02:05:32;;;;;;;7.25;3.25;;;;;;;4.24;59.21;101168.80;1730356;80;21035;-61
2023/01/04 02:07:59;;;;;;;5.00;1.12;;;;;;;4.18;59.20;101172.11;1747938;80;21095;-61
2023/01/04 02:10:26;;;;;;;6.42;3.12;;;;;;;4.13;59.08;101174.06;1753319;80;21103;-61
2023/01/04 02:12:53;;;;;;;3.85;1.47;;;;;;;4.07;59.20;101166.05;1752378;80;21250;-61
2023/01/04 02:15:20;;;;;;;5.25;2.40;;;;;;;4.03;59.20;101170.97;1748878;80;21024;-61
2023/01/04 02:18:05;;;;;;;3.12;1.02;;;;;;;4.02;59.20;101168.83;1750738;80;21108;-63
2023/01/04 02:20:45;;;;;;;5.62;1.60;;;;;;;4.04;59.08;101170.08;1757350;80;21097;-61
2023/01/04 02:23:29;;;;;;;6.78;2.05;;;;;;;4.04;58.90;101163.56;1771063;80;21460;-63
2023/01/04 02:26:20;;;;;;;3.58;1.12;;;;;;;4.01;58.85;101165.82;1778854;80;21103;-61
2023/01/04 02:29:19;;;;;;;6.53;3.10;;;;;;;3.98;58.93;101164.64;1781350;80;21039;-64
2023/01/04 02:32:27;;;;;;;4.40;1.30;;;;;;;3.95;58.91;101161.31;1780117;80;21011;-62
2023/01/04 02:35:27;;;;;;;3.83;1.00;;;;;;;3.91;58.88;101160.13;1780899;80;21102;-62
2023/01/04 02:38:05;;;;;;;8.28;2.55;;;;;;;3.87;58.86;101158.57;1775728;80;21094;-62
2023/01/04 02:40:43;;;;;;;13.03;6.00;;;;;;;3.84;58.96;101159.98;1753112;80;21157;-64
2023/01/04 02:46:33;;;;;;;;;;;;;;;3.81;58.94;101153.59;1774818;80;21114;-61
2023/01/04 02:51:45;;;;;;;9.23;2.27;;;;;;;3.75;59.16;101156.89;1780286;80;21083;-63
2023/01/04 02:54:15;;;;;;;6.37;1.85;;;;;;;3.73;59.21;101156.95;1768751;81;21248;-62
2023/01/04 02:57:00;;;;;;;6.78;4.03;;;;;;;3.72;59.31;101156.58;1772151;80;21074;-61
2023/01/04 02:59:42;;;;;;;3.90;1.57;;;;;;;3.71;59.33;101150.50;1773709;80;21051;-61
2023/01/04 03:08:36;;;;;;;4.20;1.10;;;;;;;3.61;59.51;101143.96;1724567;82;21283;-64
2023/01/04 03:12:30;;;;;;;7.12;1.60;;;;;;;3.59;59.56;101154.89;1747577;80;21006;-61
2023/01/04 03:13:41;;;;;;;5.45;1.20;;;;;;;3.58;59.64;101163.63;1758473;80;21042;-62
2023/01/04 03:16:15;;;;;;;4.00;1.12;;;;;;;3.54;59.78;101153.75;1770760;80;21080;-63
2023/01/04 03:18:44;;;;;;;6.42;2.58;;;;;;;3.55;59.85;101149.42;1759965;81;21050;-63
2023/01/04 03:21:11;;;;;;;8.28;2.08;;;;;;;3.51;59.97;101147.39;1760627;81;21566;-64
2023/01/04 03:35:22;;;;;;;4.10;1.75;;;;;;;3.45;60.39;101145.48;1747693;81;21223;-61
2023/01/04 03:49:42;;;;;;;8.58;4.67;;;;;;;3.42;60.71;101145.13;1750351;81;21255;-61
2023/01/04 03:52:09;;;;;;;7.33;4.72;;;;;;;3.42;60.71;101133.42;1763736;80;20988;-63
2023/01/04 03:54:38;;;;;;;7.05;2.95;;;;;;;3.43;60.78;101151.17;1764167;81;21016;-61
2023/01/04 03:57:06;;;;;;;4.90;1.65;;;;;;;3.44;60.77;101146.38;1744491;81;21031;-61
2023/01/04 03:59:36;;;;;;;4.65;1.47;;;;;;;3.46;60.80;101141.95;1738177;81;22077;-61
2023/01/04 04:02:03;;;;;;;6.03;1.65;;;;;;;3.49;60.77;101137.47;1746358;81;21309;-63
2023/01/04 04:10:00;;;;;;;4.97;1.37;;;;;;;3.47;60.96;101152.77;1745882;81;21036;-63
2023/01/04 04:12:27;;;;;;;4.15;1.27;;;;;;;3.49;60.95;101150.48;1742082;81;21886;-62
2023/01/04 04:14:53;;;;;;;5.40;1.87;;;;;;;3.48;61.03;101153.14;1745654;81;21242;-63
2023/01/04 04:17:20;;;;;;;6.20;3.42;;;;;;;3.47;61.07;101134.55;1761159;80;21051;-62
2023/01/04 04:19:47;;;;;;;4.25;1.45;;;;;;;3.45;61.15;101138.52;1769249;80;21034;-61
2023/01/04 04:22:13;;;;;;;6.22;3.30;;;;;;;3.48;61.13;101142.73;1762024;80;21055;-63
2023/01/04 04:24:40;;;;;;;4.42;1.42;;;;;;;3.45;61.23;101143.72;1765720;80;21046;-61
2023/01/04 04:27:06;;;;;;;7.50;4.28;;;;;;;3.44;61.34;101139.87;1774220;80;21254;-63
2023/01/04 04:29:33;;;;;;;9.98;2.05;;;;;;;3.46;61.33;101145.42;1770365;80;21563;-64
2023/01/04 04:32:00;;;;;;;7.33;1.77;;;;;;;3.44;61.40;101139.87;1775153;80;21184;-62
2023/01/04 04:34:26;;;;;;;7.10;3.70;;;;;;;3.43;61.43;101141.63;1773539;80;21038;-62
2023/01/04 04:36:53;;;;;;;3.72;1.40;;;;;;;3.41;61.52;101142.12;1786502;80;21094;-62
2023/01/04 04:39:20;;;;;;;4.53;1.52;;;;;;;3.44;61.49;101147.21;1781777;80;21116;-62
2023/01/04 04:41:47;;;;;;;3.85;1.50;;;;;;;3.52;61.34;101157.34;1757138;80;21085;-62
2023/01/04 04:44:16;;;;;;;5.10;1.40;;;;;;;3.60;61.16;101155.73;1767362;80;21152;-62
2023/01/04 04:46:43;;;;;;;9.40;4.33;;;;;;;3.65;61.00;101155.13;1766899;80;22361;-62
2023/01/04 04:49:10;;;;;;;4.05;1.50;;;;;;;3.63;61.02;101149.98;1758678;80;21523;-60
2023/01/04 04:51:37;;;;;;;6.60;2.37;;;;;;;3.61;61.05;101145.72;1757903;80;21168;-61
2023/01/04 04:54:06;;;;;;;7.42;4.10;;;;;;;3.59;61.08;101152.75;1763825;80;21042;-62
2023/01/04 04:56:32;;;;;;;5.10;1.30;;;;;;;3.57;61.06;101158.01;1767303;80;21062;-61
2023/01/04 04:59:01;;;;;;;9.80;4.20;;;;;;;3.51;61.20;101156.50;1768690;80;21087;-61
2023/01/04 05:06:53;;;;;;;6.12;2.35;;;;;;;3.32;61.87;101154.19;1816373;76;22633;-61
2023/01/04 05:09:20;;;;;;;3.92;1.45;;;;;;;3.36;61.61;101166.16;1771348;78;21080;-61
2023/01/04 05:14:33;;;;;;;4.25;1.60;;;;;;;3.39;61.52;101171.25;1774829;78;20986;-61
2023/01/04 05:16:59;;;;;;;6.00;2.30;;;;;;;3.40;61.45;101168.22;1778015;79;21082;-61
2023/01/04 05:19:26;;;;;;;4.20;1.67;;;;;;;3.38;61.45;101172.18;1779891;80;21030;-61
2023/01/04 05:21:52;;;;;;;8.75;1.60;;;;;;;3.37;61.52;101174.38;1783209;78;20969;-61
2023/01/04 05:24:19;;;;;;;6.37;3.90;;;;;;;3.37;61.53;101171.77;1772389;78;21151;-61
2023/01/04 05:26:45;;;;;;;7.20;1.62;;;;;;;3.39;61.55;101173.86;1784772;78;20973;-62
2023/01/04 05:30:49;;;;;;;3.90;1.50;;;;;;;3.41;61.46;101174.64;1787740;80;21042;-61
2023/01/04 05:31:40;;;;;;;6.92;1.90;;;;;;;3.49;61.23;101176.97;1787218;78;21508;-61
2023/01/04 05:34:07;;;;;;;7.67;2.15;;;;;;;3.51;61.19;101180.35;1786613;78;21633;-62
2023/01/04 05:36:34;;;;;;;9.73;3.80;;;;;;;3.56;61.10;101174.98;1780859;78;21996;-62
2023/01/04 05:39:01;;;;;;;6.17;1.70;;;;;;;3.57;61.11;101192.30;1779581;78;21056;-62
2023/01/04 05:44:12;;;;;;;7.03;2.10;;;;;;;3.64;60.88;101191.16;1778448;78;21701;-62
2023/01/04 05:46:39;;;;;;;13.10;4.25;;;;;;;3.70;60.79;101188.33;1780546;78;21579;-60
2023/01/04 05:49:05;;;;;;;5.83;2.17;;;;;;;3.70;60.73;101185.73;1777797;78;21814;-63
2023/01/04 05:51:32;;;;;;;6.12;2.02;;;;;;;3.74;60.56;101198.16;1777881;78;21054;-62
2023/01/04 05:53:58;;;;;;;7.15;4.40;;;;;;;3.78;60.53;101191.45;1777382;78;21048;-62
2023/01/04 05:56:25;;;;;;;6.55;2.15;;;;;;;3.80;60.33;101200.08;1779351;78;21118;-62
2023/01/04 05:58:52;;;;;;;7.50;4.58;;;;;;;3.84;60.29;101191.69;1777846;78;21062;-62
2023/01/04 06:01:18;;;;;;;5.12;1.57;;;;;;;3.86;60.16;101201.59;1778162;78;21211;-62
2023/01/04 06:03:45;;;;;;;6.40;1.77;;;;;;;3.89;60.12;101201.47;1779248;78;21070;-62
2023/01/04 06:06:13;;;;;;;5.22;2.00;;;;;;;3.89;60.12;101202.77;1780383;78;21068;-64
2023/01/04 06:08:39;;;;;;;5.17;1.85;;;;;;;3.90;60.12;101207.92;1785485;78;21109;-62
2023/01/04 06:11:06;;;;;;;6.95;4.05;;;;;;;3.91;60.14;101204.86;1783892;78;21045;-62
2023/01/04 06:13:34;;;;;;;7.22;4.25;;;;;;;3.92;60.17;101200.05;1782072;78;21145;-64
2023/01/04 06:16:01;;;;;;;4.35;1.65;;;;;;;3.94;60.10;101202.60;1783766;78;21102;-64
2023/01/04 06:18:29;;;;;;;7.50;3.83;;;;;;;3.99;60.03;101205.88;1783380;78;21094;-62
2023/01/04 06:20:55;;;;;;;3.40;1.10;;;;;;;3.94;60.13;101199.53;1785850;78;21499;-62
2023/01/04 06:23:22;;;;;;;7.70;4.25;;;;;;;3.94;60.21;101200.00;1749651;80;21065;-61
2023/01/04 06:25:48;;;;;;;6.70;1.87;;;;;;;3.94;60.20;101202.60;1715456;82;21288;-61
2023/01/04 06:28:15;;;;;;;4.30;1.45;;;;;;;4.04;59.95;101205.23;1742526;82;21044;-62
2023/01/04 06:30:41;;;;;;;7.65;4.10;;;;;;;4.10;59.89;101206.27;1747519;80;21055;-62
2023/01/04 06:33:08;;;;;;;4.22;1.60;;;;;;;4.12;59.67;101224.45;1740747;81;21075;-60
2023/01/04 06:35:35;;;;;;;8.28;5.05;;;;;;;4.18;59.61;101217.70;1714367;82;21139;-60
2023/01/04 06:38:02;;;;;;;6.28;2.00;;;;;;;4.21;59.55;101216.28;1712109;81;21251;-61
2023/01/04 06:40:30;;;;;;;8.38;4.15;;;;;;;4.24;59.55;101213.09;1718220;82;21042;-60
2023/01/04 06:44:44;;;;;;;9.20;5.78;;;;;;;4.23;59.82;101215.30;1794350;78;22084;-61
2023/01/04 06:47:12;;;;;;;9.63;5.65;;;;;;;4.41;59.17;101218.92;1772245;80;21026;-60
2023/01/04 06:49:40;;;;;;;8.28;2.37;;;;;;;4.44;59.14;101219.27;1764995;80;21229;-60
2023/01/04 06:52:06;;;;;;;8.03;4.78;;;;;;;4.44;59.20;101221.41;1755733;81;20995;-61
2023/01/04 06:54:33;;;;;;;4.80;1.52;;;;;;;4.45;59.11;101226.15;1787167;80;21081;-60
2023/01/04 06:56:59;;;;;;;5.17;1.80;;;;;;;4.45;59.21;101224.42;1787636;80;21026;-60
2023/01/04 06:59:26;;;;;;;6.97;3.87;;;;;;;4.46;59.01;101243.50;1783800;80;21074;-61
2023/01/04 07:01:52;;;;;;;8.23;3.90;;;;;;;4.47;59.00;101236.05;1757883;80;21254;-60
2023/01/04 07:04:19;;;;;;;6.58;3.65;;;;;;;4.49;58.99;101234.25;1758207;80;20986;-60
2023/01/04 07:06:46;;;;;;;5.83;1.87;;;;;;;4.50;58.98;101226.81;1761558;80;21538;-61
2023/01/04 07:09:13;;;;;;;4.42;1.60;;;;;;;4.43;59.14;101242.31;1764392;80;21016;-61
2023/01/04 07:11:40;;;;;;;6.22;3.15;;;;;;;4.48;59.10;101235.16;1760308;80;21075;-61
2023/01/04 07:14:06;;;;;;;4.75;1.45;;;;;;;4.49;59.16;101239.91;1766123;80;21321;-61
2023/01/04 07:16:34;;;;;;;6.55;4.12;;;;;;;4.47;59.13;101238.66;1771021;80;21531;-61
2023/01/04 07:19:01;;;;;;;7.20;3.60;;;;;;;4.44;59.31;101251.38;1713745;83;22299;-61
2023/01/04 07:21:28;;;;;;;4.65;1.60;;;;;;;4.46;59.34;101233.91;1699674;83;21855;-60
2023/01/04 07:23:55;;;;;;;6.85;3.25;;;;;;;4.57;59.25;101231.31;1705035;83;21023;-61
2023/01/04 07:26:22;;;;;;;3.50;1.15;;;;;;;4.65;58.83;101232.69;1699945;83;21261;-61
2023/01/04 07:31:34;;;;;;;5.37;2.43;;;;;;;4.72;58.73;101227.23;1705706;83;21127;-61
2023/01/04 07:34:00;;;;;;;7.03;3.42;;;;;;;4.74;58.69;101229.30;1702137;83;21689;-62
2023/01/04 07:36:27;;;;;;;7.47;4.15;;;;;;;4.78;58.75;101236.10;1709548;83;21554;-59
2023/01/04 07:38:53;;;;;;;6.90;3.92;;;;;;;4.79;58.48;101234.73;1715036;83;22085;-59
2023/01/04 07:41:20;;;;;;;4.12;1.52;;;;;;;4.81;58.51;101226.39;1708554;83;21513;-59
2023/01/04 07:43:46;;;;;;;10.50;5.00;;;;;;;4.83;58.26;101234.98;1702947;83;21478;-61
2023/01/04 07:46:13;;;;;;;10.68;5.33;;;;;;;4.83;58.22;101232.84;1718718;82;21055;-62
2023/01/04 07:48:39;;;;;;;5.85;2.60;;;;;;;4.84;58.21;101232.78;1714615;83;21012;-62
2023/01/04 07:51:06;;;;;;;11.55;6.03;;;;;;;4.86;58.07;101236.63;1751966;80;22307;-61
2023/01/04 07:53:33;;;;;;;10.00;5.78;;;;;;;4.83;58.17;101244.58;1722683;82;21040;-61
2023/01/04 07:59:00;;;;;;;10.58;4.47;;;;;;;4.76;58.49;101248.36;1779958;78;22010;-61
2023/01/04 08:01:27;;;;;;;8.90;3.27;;;;;;;4.89;58.24;101246.06;1747309;80;21030;-61
2023/01/04 08:03:54;;;;;;;4.97;0.80;;;;;;;4.99;57.84;101245.62;1743545;81;21775;-62
2023/01/04 08:06:20;;;;;;;5.50;1.77;;;;;;;5.09;57.37;101259.56;1746943;81;21541;-61
2023/01/04 08:08:48;;;;;;;4.95;1.60;;;;;;;5.10;57.38;101238.62;1751266;80;22063;-61
2023/01/04 08:11:16;;;;;;;7.70;3.67;;;;;;;5.14;57.57;101249.31;1757392;80;21505;-61
2023/01/04 08:13:44;;;;;;;6.33;3.55;;;;;;;5.17;57.50;101261.39;1754348;80;21111;-61
2023/01/04 08:16:19;;;;;;;9.45;4.17;;;;;;;5.23;57.46;101260.27;1763823;80;21235;-61
2023/01/04 08:18:45;;;;;;;5.75;2.08;;;;;;;5.25;57.40;101269.73;1767863;80;20979;-61
2023/01/04 08:21:12;;;;;;;16.95;11.43;;;;;;;5.26;57.42;101259.70;1770004;79;21019;-61
2023/01/04 08:23:39;;;;;;;22.50;13.60;;;;;;;5.26;57.50;101266.22;1769794;80;21046;-60
2023/01/04 08:26:11;;;;;;;26.37;16.10;;;;;;;5.24;57.56;101257.59;1752754;80;21089;-60
2023/01/04 08:28:43;;;;;;;21.75;13.30;;;;;;;5.23;57.67;101258.52;1735037;81;21238;-60
2023/01/04 08:31:15;;;;;;;13.28;5.87;;;;;;;5.26;57.60;101260.13;1745654;81;21007;-60
2023/01/04 08:33:42;;;;;;;11.48;6.53;;;;;;;5.23;57.72;101262.44;1726163;82;21097;-60
2023/01/04 08:36:23;;;;;;;8.53;4.55;;;;;;;5.16;57.88;101264.90;1726348;82;21079;-61
2023/01/04 08:38:52;;;;;;;8.13;1.98;;;;;;;5.11;58.06;101261.64;1764239;80;21134;-60
2023/01/04 08:41:18;;;;;;;7.20;2.55;;;;;;;5.11;58.18;101258.59;1763881;80;21181;-60
2023/01/04 08:43:45;;;;;;;5.55;1.80;;;;;;;5.23;58.16;101269.39;1756340;80;21039;-61
2023/01/04 08:46:12;;;;;;;11.22;4.58;;;;;;;5.34;58.04;101262.79;1756451;81;21074;-61
2023/01/04 08:48:40;;;;;;;10.08;5.50;;;;;;;5.40;57.85;101265.61;1752529;80;21547;-61
2023/01/04 08:51:15;;;;;;;7.03;4.10;;;;;;;5.43;57.79;101264.61;1747017;80;21153;-61
2023/01/04 08:53:43;;;;;;;5.50;1.92;;;;;;;5.43;57.78;101258.95;1762231;80;21232;-61
2023/01/04 08:56:11;;;;;;;7.55;4.35;;;;;;;5.43;57.79;101261.56;1770404;80;21015;-62
2023/01/04 08:58:38;;;;;;;7.90;4.90;;;;;;;5.45;57.96;101265.41;1748954;80;21043;-62
2023/01/04 09:01:09;;;;;;;7.95;4.28;;;;;;;5.48;57.67;101267.86;1740930;81;21019;-62
2023/01/04 09:03:36;;;;;;;5.62;1.70;;;;;;;5.47;57.63;101262.27;1742560;80;21051;-61
2023/01/04 09:06:09;;;;;;;7.12;4.05;;;;;;;5.47;57.68;101256.58;1750713;81;21241;-61
2023/01/04 09:08:36;;;;;;;7.42;4.50;;;;;;;5.47;57.47;101262.27;1751708;81;21042;-61
2023/01/04 09:11:10;;;;;;;7.22;4.22;;;;;;;5.44;57.63;101256.71;1756908;81;21062;-61
2023/01/04 09:13:37;;;;;;;6.00;3.52;;;;;;;5.41;57.61;101259.45;1753409;81;21091;-62
2023/01/04 09:16:09;;;;;;;5.28;1.60;;;;;;;5.40;57.67;101256.47;1748940;80;21019;-62
2023/01/04 09:18:37;;;;;;;5.58;2.05;;;;;;;5.41;57.70;101252.92;1755367;81;21076;-61
2023/01/04 09:21:10;;;;;;;7.97;4.12;;;;;;;5.38;57.63;101251.32;1756831;81;21034;-61
2023/01/04 09:23:36;;;;;;;10.23;4.75;;;;;;;5.35;57.60;101250.61;1741931;81;21023;-62
2023/01/04 09:26:13;;;;;;;9.83;5.30;;;;;;;5.33;57.84;101250.67;1756318;81;21074;-62
2023/01/04 09:30:13;;;;;;;10.72;5.45;;;;;;;5.13;58.52;101282.02;1795544;77;22744;-61
2023/01/04 09:32:41;;;;;;;5.15;1.98;;;;;;;5.36;57.72;101257.07;1765652;80;20964;-62
2023/01/04 09:35:08;;;;;;;7.95;4.37;;;;;;;5.47;57.38;101257.89;1770508;80;21081;-62
2023/01/04 09:37:35;;;;;;;5.20;1.72;;;;;;;5.52;57.33;101248.08;1775946;80;21557;-62
2023/01/04 09:40:01;;;;;;;9.05;4.50;;;;;;;5.54;57.36;101256.69;1764287;80;21527;-61
2023/01/04 09:42:35;;;;;;;9.55;4.53;;;;;;;5.60;57.19;101252.97;1762634;80;21046;-61
2023/01/04 09:45:21;;;;;;;8.65;4.45;;;;;;;5.62;57.13;101243.77;1774881;80;21133;-61
2023/01/04 09:47:58;;;;;;;5.62;2.45;;;;;;;5.65;57.13;101243.16;1766880;80;21154;-61
2023/01/04 09:50:35;;;;;;;9.25;3.72;;;;;;;5.68;57.16;101246.08;1770419;80;21551;-61
2023/01/04 09:53:07;;;;;;;7.87;3.98;;;;;;;5.66;57.06;101239.61;1756787;80;21050;-60
2023/01/04 09:55:45;;;;;;;11.43;4.25;;;;;;;5.69;57.21;101239.95;1766379;80;21046;-61
2023/01/04 09:58:35;;;;;;;6.33;3.25;;;;;;;5.73;57.04;101233.66;1738066;80;21554;-61
2023/01/04 10:01:23;;;;;;;7.12;3.67;;;;;;;5.80;57.02;101236.39;1762793;80;21195;-61
2023/01/04 10:04:00;;;;;;;7.95;3.52;;;;;;;5.82;56.64;101264.58;1764295;78;21090;-61
2023/01/04 10:06:27;;;;;;;4.65;1.80;;;;;;;5.79;56.62;101226.02;1761525;80;21049;-62
2023/01/04 10:08:56;;;;;;;6.55;3.98;;;;;;;5.78;56.77;101225.14;1750607;80;21058;-61
2023/01/04 10:11:34;;;;;;;8.08;3.87;;;;;;;5.82;56.92;101241.55;1783685;80;21630;-60
2023/01/04 10:14:17;;;;;;;7.95;4.17;;;;;;;5.85;56.69;101221.79;1787508;80;21154;-60
2023/01/04 10:17:08;;;;;;;10.28;4.42;;;;;;;5.87;56.67;101234.34;1779603;78;21114;-61
2023/01/04 10:19:55;;;;;;;9.00;4.45;;;;;;;5.90;56.15;101227.64;1734292;80;21134;-61
2023/01/04 10:22:36;;;;;;;9.60;3.60;;;;;;;5.94;56.12;101227.91;1759794;78;21079;-62
2023/01/04 10:25:46;;;;;;;7.70;4.15;;;;;;;5.99;56.27;101224.64;1761305;80;21073;-59
2023/01/04 10:28:41;;;;;;;7.15;4.10;;;;;;;6.03;55.95;101230.09;1781681;80;21224;-62
2023/01/04 10:31:21;;;;;;;8.88;3.50;;;;;;;6.06;55.76;101226.03;1726717;81;21003;-62
2023/01/04 10:33:51;;;;;;;7.67;3.80;;;;;;;6.06;55.54;101215.58;1765350;81;21011;-61
2023/01/04 10:36:23;;;;;;;6.47;3.25;;;;;;;6.07;55.63;101228.17;1754448;79;20988;-60
2023/01/04 10:39:04;;;;;;;6.42;3.42;;;;;;;6.06;55.60;101216.89;1748690;81;21497;-60
2023/01/04 10:41:42;;;;;;;5.22;2.47;;;;;;;6.10;55.40;101219.77;1768419;81;21133;-61
2023/01/04 10:44:38;;;;;;;5.75;2.33;;;;;;;6.12;55.26;101216.61;1770245;79;21098;-61
2023/01/04 10:47:18;;;;;;;3.47;1.20;;;;;;;6.14;55.30;101213.92;1761721;80;21023;-62
2023/01/04 10:49:56;;;;;;;3.85;1.67;;;;;;;6.16;55.20;101209.93;1755608;79;21650;-60
2023/01/04 10:52:30;;;;;;;7.65;3.02;;;;;;;6.18;55.18;101212.00;1771362;80;21032;-61
2023/01/04 10:55:07;;;;;;;7.42;3.35;;;;;;;6.20;55.26;101207.55;1704478;83;21433;-60
2023/01/04 11:00:07;;;;;;;6.50;3.33;;;;;;;6.18;55.62;101216.77;1865353;75;21956;-61
2023/01/04 11:02:45;;;;;;;6.15;1.80;;;;;;;6.30;55.12;101217.49;1844961;77;20953;-61
2023/01/04 11:05:23;;;;;;;7.05;3.25;;;;;;;6.30;54.92;101232.30;1776017;80;21795;-61
2023/01/04 11:07:54;;;;;;;7.60;3.58;;;;;;;6.28;55.06;101227.63;1788073;79;21584;-61
2023/01/04 11:10:32;;;;;;;6.35;3.12;;;;;;;6.27;55.22;101220.25;1786233;80;21003;-61
2023/01/04 11:12:59;;;;;;;6.03;2.15;;;;;;;6.28;55.35;101225.84;1793036;80;21090;-61
2023/01/04 11:15:26;;;;;;;8.03;3.83;;;;;;;6.29;55.15;101224.10;1782336;79;21030;-61
2023/01/04 11:17:53;;;;;;;7.55;3.67;;;;;;;6.29;55.18;101216.27;1749461;80;21165;-63
2023/01/04 11:20:19;;;;;;;7.45;3.95;;;;;;;6.27;55.24;101211.55;1789288;80;21030;-61
2023/01/04 11:23:12;;;;;;;7.33;3.80;;;;;;;6.24;55.42;101216.47;1793334;80;21034;-61
2023/01/04 11:25:50;;;;;;;9.70;3.60;;;;;;;6.25;55.39;101219.45;1791946;80;21085;-60
2023/01/04 11:28:32;;;;;;;8.95;4.60;;;;;;;6.25;55.54;101222.54;1771588;80;21097;-61
2023/01/04 11:31:16;;;;;;;8.60;5.25;;;;;;;6.25;55.91;101217.31;1734395;80;21130;-63
2023/01/04 11:34:00;;;;;;;10.18;5.60;;;;;;;6.28;56.64;101210.63;1749873;80;21034;-61
2023/01/04 11:36:41;;;;;;;10.63;5.80;;;;;;;6.30;56.86;101216.63;1772036;80;20995;-61
2023/01/04 11:39:24;;;;;;;8.95;5.40;;;;;;;6.30;57.03;101216.63;1768025;79;21011;-61
2023/01/04 11:42:03;;;;;;;6.92;3.20;;;;;;;6.30;57.26;101216.19;1769437;80;21049;-62
2023/01/04 11:44:31;;;;;;;9.20;6.12;;;;;;;6.30;57.53;101227.95;1771696;80;21118;-62
2023/01/04 11:47:19;;;;;;;9.80;6.08;;;;;;;6.23;57.91;101225.70;1776122;80;21535;-61
2023/01/04 11:49:45;;;;;;;7.70;2.92;;;;;;;6.18;58.23;101221.16;1777405;80;22237;-62
2023/01/04 11:52:36;;;;;;;7.72;3.27;;;;;;;6.12;58.87;101221.83;1766240;80;21063;-62
2023/01/04 11:55:25;;;;;;;9.00;5.20;;;;;;;6.13;59.17;101216.14;1762164;80;21015;-62
2023/01/04 11:58:07;;;;;;;7.40;2.72;;;;;;;6.11;59.68;101219.30;1772082;80;21299;-60
2023/01/04 12:00:34;;;;;;;8.20;5.22;;;;;;;6.09;59.79;101214.14;1765287;80;21548;-61
2023/01/04 12:03:14;;;;;;;8.45;5.37;;;;;;;6.08;59.94;101212.43;1704654;83;21791;-61
2023/01/04 12:05:41;;;;;;;7.92;4.87;;;;;;;6.08;60.12;101205.06;1732721;81;21555;-62
2023/01/04 12:08:30;;;;;;;8.18;5.22;;;;;;;6.10;60.15;101219.77;1740253;81;21120;-62
2023/01/04 12:10:58;;;;;;;6.97;3.05;;;;;;;6.12;60.17;101221.00;1731560;81;21174;-62
2023/01/04 12:13:25;;;;;;;8.33;5.05;;;;;;;6.16;60.28;101216.00;1789899;78;21481;-61
2023/01/04 12:16:29;;;;;;;6.50;2.67;;;;;;;6.09;60.48;101221.98;1790017;78;21031;-62
2023/01/04 12:18:55;;;;;;;7.53;3.05;;;;;;;6.00;60.73;101219.81;1791026;78;21039;-62
2023/01/04 12:21:24;;;;;;;9.78;5.15;;;;;;;5.97;61.00;101224.31;1799792;78;21062;-62
2023/01/04 12:23:52;;;;;;;9.20;4.83;;;;;;;5.93;61.07;101223.58;1786100;78;22271;-62
2023/01/04 12:26:19;;;;;;;8.38;4.80;;;;;;;5.93;61.12;101222.28;1794581;78;21027;-62
2023/01/04 12:28:48;;;;;;;9.45;4.58;;;;;;;6.02;60.99;101220.58;1800953;78;21535;-62
2023/01/04 12:31:25;;;;;;;8.55;5.00;;;;;;;6.09;60.86;101224.59;1795940;78;21008;-62
2023/01/04 12:33:57;;;;;;;8.95;5.35;;;;;;;6.13;60.73;101223.51;1736564;82;21592;-62
2023/01/04 12:36:42;;;;;;;6.42;2.87;;;;;;;6.18;60.65;101219.38;1734186;82;21052;-62
2023/01/04 12:39:21;;;;;;;6.60;2.02;;;;;;;6.22;60.46;101222.69;1784486;80;21540;-62
2023/01/04 12:41:59;;;;;;;8.60;5.15;;;;;;;6.20;60.08;101221.45;1790077;78;21400;-62
2023/01/04 12:44:50;;;;;;;9.48;5.67;;;;;;;6.16;60.00;101229.06;1815692;78;21034;-62
2023/01/04 12:50:18;;;;;;;7.30;3.45;;;;;;;6.13;59.16;101223.51;1811930;78;21153;-62
2023/01/04 12:52:50;;;;;;;6.25;3.42;;;;;;;6.08;58.25;101222.05;1802485;78;21042;-60
2023/01/04 12:55:43;;;;;;;6.62;3.17;;;;;;;6.00;58.36;101215.90;1799537;78;21026;-61
2023/01/04 12:58:31;;;;;;;5.53;2.25;;;;;;;5.98;58.51;101219.02;1805318;77;21048;-60
2023/01/04 13:01:03;;;;;;;6.62;2.75;;;;;;;6.07;58.30;101217.73;1849529;77;21511;-61